Time;durP1;ratioP1;P1;durP2;ratioP2;P2;SDS_P1;SDS_P2;PMS_P1;PMS_P2;Temp;Humidity;BMP_temperature;BMP_pressure;BME280_temperature;BME280_humidity;BME280_pressure;Samples;Min_cycle;Max_cycle;Signal;HPM_P1;HPM_P2
2023/10/18 00:00:59;;;;;;;;;9.00;6.00;;;;;12.80;66.11;99863.09;5102008;27;45495;-80
2023/10/18 00:03:26;;;;;;;;;10.75;10.00;;;;;12.53;66.12;99825.19;5101563;27;44787;-80
2023/10/18 00:05:51;;;;;;;;;13.00;11.25;;;;;12.73;65.54;99856.50;5098730;27;45379;-80
2023/10/18 00:08:17;;;;;;;;;10.50;9.75;;;;;12.78;66.28;99872.19;5096239;27;45506;-82
2023/10/18 00:10:42;;;;;;;;;9.50;9.50;;;;;12.75;66.40;99859.91;5100021;27;46136;-85
2023/10/18 00:13:08;;;;;;;;;11.75;10.50;;;;;12.61;66.18;99828.94;5101957;27;45412;-86
2023/10/18 00:15:34;;;;;;;;;12.00;10.75;;;;;12.71;65.87;99847.78;5101570;27;45224;-87
2023/10/18 00:17:59;;;;;;;;;11.00;9.00;;;;;12.65;66.15;99842.91;5099985;27;45409;-86
2023/10/18 00:20:25;;;;;;;;;10.75;9.25;;;;;12.70;66.30;99846.91;5086496;27;46233;-85
2023/10/18 00:22:51;;;;;;;;;13.00;10.25;;;;;12.72;66.33;99848.63;5082831;28;45488;-81
2023/10/18 00:25:18;;;;;;;;;9.00;7.25;;;;;12.71;66.17;99847.78;5081656;28;45331;-81
2023/10/18 00:27:45;;;;;;;;;11.00;9.50;;;;;12.72;66.22;99844.13;5079023;27;45568;-84
2023/10/18 00:30:11;;;;;;;;;8.75;6.75;;;;;12.70;66.24;99846.06;5079087;28;45321;-87
2023/10/18 00:32:38;;;;;;;;;9.50;7.50;;;;;12.65;66.46;99849.09;5079539;27;45680;-81
2023/10/18 00:35:12;;;;;;;;;9.50;7.50;;;;;12.63;66.39;99834.16;5078926;28;45385;-81
2023/10/18 00:37:47;;;;;;;;;13.50;11.75;;;;;12.51;66.38;99806.63;5096173;27;45357;-83
2023/10/18 00:42:55;;;;;;;;;11.67;11.67;;;;;12.65;66.21;99816.25;5106689;27;45274;-81
2023/10/18 00:45:23;;;;;;;;;14.25;12.75;;;;;12.61;66.67;99806.75;5088472;27;45244;-80
2023/10/18 00:47:48;;;;;;;;;12.25;9.00;;;;;12.65;66.59;99817.09;5095496;27;45165;-82
2023/10/18 00:50:16;;;;;;;;;13.75;11.25;;;;;12.65;66.54;99821.56;5099143;27;45442;-84
2023/10/18 00:52:41;;;;;;;;;15.25;13.00;;;;;12.55;66.75;99801.91;5098951;27;45510;-84
2023/10/18 00:55:10;;;;;;;;;10.25;7.50;;;;;12.62;66.76;99814.63;5099779;27;45380;-87
2023/10/18 00:57:37;;;;;;;;;7.67;7.67;;;;;12.60;66.42;99815.72;5098479;27;45454;-87
2023/10/18 01:00:07;;;;;;;;;9.00;9.00;;;;;12.59;66.37;99800.69;5097708;27;46206;-82
2023/10/18 01:02:36;;;;;;;;;10.00;8.33;;;;;12.53;66.52;99791.34;5097335;27;45370;-83
2023/10/18 01:05:09;;;;;;;;;9.00;6.00;;;;;12.52;66.44;99789.66;5100040;27;45180;-86
2023/10/18 01:07:35;;;;;;;;;14.67;9.33;;;;;12.57;66.33;99794.63;5091859;27;45684;-81
2023/10/18 01:10:06;;;;;;;;;12.25;8.50;;;;;12.53;66.60;99788.69;5099110;27;47089;-80
2023/10/18 01:12:34;;;;;;;;;11.33;10.67;;;;;12.51;66.83;99781.78;5099287;27;45344;-82
2023/10/18 01:15:00;;;;;;;;;10.67;9.33;;;;;12.49;66.55;99776.53;5099326;27;45366;-81
2023/10/18 01:17:25;;;;;;;;;17.00;11.00;;;;;12.47;66.45;99767.81;5088604;27;45299;-82
2023/10/18 01:19:53;;;;;;;;;7.50;7.50;;;;;12.48;66.51;99766.84;5083867;27;45694;-86
2023/10/18 01:22:19;;;;;;;;;9.67;9.67;;;;;12.16;66.53;99702.66;5087602;27;45200;-86
2023/10/18 01:24:45;;;;;;;;;3.00;3.00;;;;;12.46;66.58;99758.13;5081407;27;45314;-85
2023/10/18 01:27:12;;;;;;;;;11.00;9.67;;;;;12.24;66.81;99716.28;5080573;27;45257;-84
2023/10/18 01:29:38;;;;;;;;;9.33;9.33;;;;;12.46;66.64;99746.59;5079268;27;45364;-87
2023/10/18 01:32:04;;;;;;;;;10.00;8.33;;;;;12.43;66.76;99746.84;5088250;27;45907;-89
2023/10/18 01:34:31;;;;;;;;;5.50;5.50;;;;;12.35;66.69;99729.59;5092834;27;45461;-84
2023/10/18 01:36:59;;;;;;;;;11.25;9.50;;;;;12.38;66.29;99728.53;5090036;27;45303;-80
2023/10/18 01:39:29;;;;;;;;;11.75;10.50;;;;;12.43;66.40;99741.50;5085048;28;46971;-80
2023/10/18 01:41:54;;;;;;;;;10.50;9.25;;;;;12.38;66.24;99721.38;5090691;28;45352;-81
2023/10/18 01:44:35;;;;;;;;;11.50;10.00;;;;;12.38;66.88;99729.38;5084486;27;45506;-84
2023/10/18 01:47:06;;;;;;;;;8.00;8.00;;;;;12.38;66.60;99739.22;5100230;27;45428;-80
2023/10/18 01:49:32;;;;;;;;;9.00;9.00;;;;;12.16;66.58;99691.16;5116788;27;47588;-81
2023/10/18 01:51:57;;;;;;;;;9.33;8.00;;;;;12.13;66.81;99686.94;5082137;27;45377;-80
2023/10/18 01:54:26;;;;;;;;;10.67;10.67;;;;;12.35;66.55;99710.94;5078702;27;45476;-81
2023/10/18 01:56:54;;;;;;;;;8.00;8.00;;;;;12.42;66.52;99716.66;5076659;27;45547;-80
2023/10/18 01:59:21;;;;;;;;;8.33;8.00;;;;;12.29;66.53;99691.91;5076588;27;45478;-81
2023/10/18 02:01:57;;;;;;;;;10.67;9.67;;;;;12.38;66.19;99699.22;5092030;27;45282;-80
2023/10/18 02:04:26;;;;;;;;;9.50;8.25;;;;;12.44;66.66;99716.53;5076099;27;45222;-81
2023/10/18 02:06:57;;;;;;;;;8.00;8.00;;;;;12.29;66.36;99690.09;5077237;27;45565;-80
2023/10/18 02:09:23;;;;;;;;;12.50;10.75;;;;;12.45;66.14;99707.56;5079039;27;45312;-81
2023/10/18 02:11:48;;;;;;;;;11.75;11.00;;;;;12.45;66.16;99699.56;5079417;28;45329;-81
2023/10/18 02:14:14;;;;;;;;;12.00;9.50;;;;;12.39;66.47;99704.41;5093224;27;45396;-79
2023/10/18 02:16:41;;;;;;;;;9.25;9.25;;;;;12.30;66.11;99689.13;5082150;27;45341;-80
2023/10/18 02:19:08;;;;;;;;;10.75;8.75;;;;;12.38;66.40;99697.38;5093780;27;45363;-79
2023/10/18 02:21:34;;;;;;;;;7.67;7.67;;;;;12.27;66.08;99668.03;5079717;27;45416;-80
2023/10/18 02:24:00;;;;;;;;;9.33;9.00;;;;;12.12;66.13;99645.25;5094404;27;45417;-81
2023/10/18 02:26:31;;;;;;;;;13.25;9.25;;;;;12.30;66.41;99673.13;5094424;27;45459;-79
2023/10/18 02:29:12;;;;;;;;;9.00;9.00;;;;;12.36;65.91;99672.63;5076507;28;45998;-81
2023/10/18 02:31:39;;;;;;;;;10.25;9.25;;;;;12.32;66.13;99665.84;5076160;27;45325;-83
2023/10/18 02:34:05;;;;;;;;;9.00;9.00;;;;;12.31;66.38;99655.31;5076403;28;45224;-81
2023/10/18 02:36:38;;;;;;;;;11.75;8.75;;;;;12.14;66.12;99614.00;5073679;27;46001;-80
2023/10/18 02:39:04;;;;;;;;;12.25;7.50;;;;;12.35;66.34;99644.28;5085035;27;46191;-81
2023/10/18 02:41:29;;;;;;;;;9.75;8.75;;;;;12.34;66.36;99637.25;5075545;27;45238;-81
2023/10/18 02:43:55;;;;;;;;;9.50;9.00;;;;;12.30;66.71;99632.28;5084319;27;45544;-81
2023/10/18 02:46:25;;;;;;;;;12.00;10.00;;;;;12.33;66.46;99635.56;5097610;27;45409;-85
2023/10/18 02:48:52;;;;;;;;;8.00;5.00;;;;;12.24;66.23;99619.44;5098505;27;45433;-83
2023/10/18 02:51:24;;;;;;;;;3.33;0.00;;;;;12.33;66.06;99624.91;5099717;27;46101;-84
2023/10/18 02:53:57;;;;;;;;;8.00;8.00;;;;;12.07;66.47;99586.09;5097729;27;45397;-81
2023/10/18 02:56:27;;;;;;;;;6.25;6.25;;;;;12.13;66.52;99596.31;5079075;27;45252;-84
2023/10/18 02:59:06;;;;;;;;;9.25;9.25;;;;;12.22;66.38;99614.22;5098577;27;45466;-80
2023/10/18 03:01:31;;;;;;;;;9.75;9.00;;;;;12.18;66.55;99610.09;5094898;27;45418;-81
2023/10/18 03:03:57;;;;;;;;;10.50;8.75;;;;;12.27;66.44;99619.22;5086965;27;45372;-80
2023/10/18 03:06:28;;;;;;;;;8.00;8.00;;;;;12.06;66.33;99579.09;5096250;27;45474;-81
2023/10/18 03:08:58;;;;;;;;;9.00;9.00;;;;;12.26;66.40;99593.53;5097249;27;46199;-82
2023/10/18 03:11:23;;;;;;;;;11.75;9.25;;;;;12.27;66.38;99592.56;5100200;27;45377;-82
2023/10/18 03:13:51;;;;;;;;;9.50;9.00;;;;;12.27;66.31;99589.88;5097958;27;45548;-81
2023/10/18 03:16:18;;;;;;;;;12.00;10.75;;;;;12.14;66.33;99557.16;5077707;27;45538;-80
2023/10/18 03:18:44;;;;;;;;;10.00;9.25;;;;;12.24;66.63;99580.31;5078937;27;45258;-79
2023/10/18 03:21:20;;;;;;;;;7.25;7.00;;;;;12.10;66.57;99544.06;5078809;27;45358;-81
2023/10/18 03:23:50;;;;;;;;;9.50;9.00;;;;;12.22;66.37;99562.72;5079166;27;45366;-81
2023/10/18 03:26:21;;;;;;;;;10.75;9.75;;;;;12.28;66.55;99559.59;5097844;27;46065;-81
2023/10/18 03:28:47;;;;;;;;;10.00;8.50;;;;;12.27;66.61;99560.56;5097992;27;47226;-81
2023/10/18 03:31:21;;;;;;;;;12.25;11.00;;;;;12.26;66.56;99578.38;5099298;27;45439;-79
2023/10/18 03:33:59;;;;;;;;;6.25;6.25;;;;;12.16;66.58;99569.41;5099863;27;45407;-81
2023/10/18 03:36:26;;;;;;;;;8.50;8.50;;;;;12.27;66.28;99598.72;5096626;27;45574;-82
2023/10/18 03:38:54;;;;;;;;;6.25;6.25;;;;;12.32;66.57;99580.53;5077286;27;45478;-80
2023/10/18 03:41:25;;;;;;;;;7.75;6.75;;;;;12.23;66.05;99559.09;5078874;28;45456;-81
2023/10/18 03:43:58;;;;;;;;;10.67;10.67;;;;;12.44;66.07;99588.53;5078955;28;45444;-81
2023/10/18 03:46:38;;;;;;;;;9.67;8.33;;;;;12.38;65.85;99580.06;5079159;28;45392;-81
2023/10/18 03:49:08;;;;;;;;;8.25;8.00;;;;;12.47;65.74;99586.47;5078369;27;46884;-79
2023/10/18 03:51:33;;;;;;;;;9.00;6.67;;;;;12.49;65.86;99570.34;5078224;28;45383;-81
2023/10/18 03:54:00;;;;;;;;;10.00;7.25;;;;;12.52;65.81;99575.47;5079202;27;45418;-79
2023/10/18 03:56:26;;;;;;;;;10.00;10.00;;;;;12.60;65.89;99586.34;5090788;27;46209;-81
2023/10/18 03:59:00;;;;;;;;;11.00;7.75;;;;;12.60;66.00;99579.19;5098695;27;46990;-80
2023/10/18 04:01:39;;;;;;;;;9.00;9.00;;;;;12.57;65.73;99566.09;5099092;27;45434;-79
2023/10/18 04:04:06;;;;;;;;;8.67;7.33;;;;;12.62;65.86;99563.91;5078154;27;45386;-80
2023/10/18 04:06:35;;;;;;;;;6.00;6.00;;;;;12.47;65.65;99541.13;5078237;27;45495;-81
2023/10/18 04:09:13;;;;;;;;;9.00;6.25;;;;;12.64;65.85;99555.78;5077843;28;46504;-80
2023/10/18 04:11:38;;;;;;;;;7.75;7.75;;;;;12.53;65.85;99534.47;5077705;27;45204;-82
2023/10/18 04:14:03;;;;;;;;;9.25;8.25;;;;;12.64;66.74;99558.47;5077725;27;45418;-81
2023/10/18 04:16:30;;;;;;;;;9.00;9.00;;;;;12.62;66.64;99555.03;5078797;28;45661;-81
2023/10/18 04:18:56;;;;;;;;;8.50;7.50;;;;;12.55;66.73;99537.88;5077711;27;46013;-81
2023/10/18 04:21:25;;;;;;;;;7.33;7.33;;;;;12.65;67.25;99554.81;5076754;28;45428;-80
2023/10/18 04:23:56;;;;;;;;;10.33;10.00;;;;;12.51;67.16;99523.09;5078253;28;45334;-82
2023/10/18 04:26:24;;;;;;;;;12.25;9.75;;;;;12.56;67.23;99524.41;5097523;27;46269;-82
2023/10/18 04:28:54;;;;;;;;;10.00;8.67;;;;;12.67;67.60;99539.53;5098406;27;45422;-81
2023/10/18 04:31:21;;;;;;;;;10.50;9.50;;;;;12.65;67.67;99539.66;5098240;27;45818;-79
2023/10/18 04:33:50;;;;;;;;;11.75;10.75;;;;;12.54;67.92;99523.69;5099101;27;45486;-81
2023/10/18 04:36:18;;;;;;;;;10.00;9.67;;;;;12.63;68.01;99546.94;5079298;27;45442;-83
2023/10/18 04:38:47;;;;;;;;;10.00;7.67;;;;;12.63;68.89;99543.41;5078061;27;45273;-80
2023/10/18 04:44:24;;;;;;;;;8.50;8.50;;;;;12.57;69.51;99509.25;5077914;27;45446;-81
2023/10/18 04:46:47;;;;;;;;;11.00;11.00;;;;;12.57;70.80;99494.09;5075894;27;45383;-81
2023/10/18 04:49:31;;;;;;;;;11.33;10.00;;;;;12.58;70.80;99500.25;5078124;27;45298;-80
2023/10/18 04:52:00;;;;;;;;;11.00;9.25;;;;;12.58;71.33;99498.44;5078315;27;45176;-81
2023/10/18 04:54:36;;;;;;;;;13.00;10.75;;;;;12.53;70.44;99492.66;5091538;27;45225;-81
2023/10/18 04:57:04;;;;;;;;;9.75;9.75;;;;;12.48;70.88;99493.97;5078305;28;45289;-80
2023/10/18 04:59:34;;;;;;;;;7.50;7.50;;;;;12.43;71.57;99480.19;5079485;27;45409;-80
2023/10/18 05:01:59;;;;;;;;;5.50;5.50;;;;;12.24;71.58;99454.16;5085490;27;45826;-82
2023/10/18 05:04:29;;;;;;;;;15.00;12.25;;;;;12.37;71.32;99477.06;5094174;27;53996;-81
2023/10/18 05:06:56;;;;;;;;;9.00;8.75;;;;;12.30;72.41;99470.50;5090093;27;45755;-82
2023/10/18 05:09:41;;;;;;;;;14.25;13.75;;;;;12.27;71.48;99469.94;5098841;27;46199;-81
2023/10/18 05:12:16;;;;;;;;;15.00;10.75;;;;;12.34;72.14;99474.63;5080632;27;45377;-82
2023/10/18 05:17:32;;;;;;;;;15.75;14.00;;;;;12.30;71.95;99459.00;5084433;27;45463;-82
2023/10/18 05:20:07;;;;;;;;;11.25;9.75;;;;;12.28;72.24;99467.13;5082645;27;46204;-83
2023/10/18 05:22:35;;;;;;;;;10.25;10.25;;;;;12.18;73.10;99446.66;5080860;27;45458;-82
2023/10/18 05:27:59;;;;;;;;;14.50;10.00;;;;;12.24;72.72;99460.38;5100022;27;45349;-83
2023/10/18 05:31:20;;;;;;;;;10.75;9.75;;;;;12.21;73.36;99449.94;5102358;27;45376;-81
2023/10/18 05:41:45;;;;;;;;;16.25;11.25;;;;;12.17;73.81;99436.97;5078334;27;46006;-82
2023/10/18 05:44:05;;;;;;;;;9.75;9.75;;;;;12.06;73.68;99424.50;5089153;27;45246;-83
2023/10/18 05:46:31;;;;;;;;;15.67;11.00;;;;;12.26;74.08;99442.41;5099151;27;45367;-81
2023/10/18 05:48:57;;;;;;;;;14.00;11.25;;;;;12.20;74.01;99426.91;5089000;27;45402;-84
2023/10/18 05:53:50;;;;;;;;;12.25;10.25;;;;;12.37;73.81;99447.72;5091561;27;45367;-83
2023/10/18 05:56:15;;;;;;;;;12.50;9.75;;;;;12.33;73.45;99438.25;5080271;27;45367;-82
2023/10/18 05:58:41;;;;;;;;;12.50;9.75;;;;;12.10;73.51;99388.63;5084358;27;45667;-82
2023/10/18 06:01:06;;;;;;;;;13.75;11.25;;;;;12.27;73.29;99421.94;5088429;27;58016;-84
2023/10/18 06:03:39;;;;;;;;;10.50;9.75;;;;;12.49;73.35;99437.00;5081190;27;45381;-85
2023/10/18 06:06:07;;;;;;;;;9.75;9.75;;;;;12.52;73.22;99448.28;5080991;27;45242;-82
2023/10/18 06:08:33;;;;;;;;;11.50;11.50;;;;;12.20;73.30;99389.59;5086768;27;45440;-83
2023/10/18 06:11:06;;;;;;;;;7.25;7.25;;;;;12.20;72.95;99378.94;5078303;27;45588;-90
2023/10/18 06:13:35;;;;;;;;;10.75;9.50;;;;;12.58;73.26;99453.09;5089763;27;45487;-83
2023/10/18 06:16:18;;;;;;;;;11.50;10.75;;;;;12.64;73.41;99447.28;5076272;27;46487;-82
2023/10/18 06:18:45;;;;;;;;;11.67;9.33;;;;;12.65;73.07;99445.47;5075783;27;45543;-83
2023/10/18 06:21:12;;;;;;;;;14.00;11.25;;;;;12.65;72.79;99446.31;5109662;27;46516;-85
2023/10/18 06:23:38;;;;;;;;;11.25;10.50;;;;;12.39;72.83;99399.59;5097539;27;45324;-84
2023/10/18 06:29:08;;;;;;;;;13.75;11.75;;;;;12.67;72.51;99446.19;5097471;27;45444;-81
2023/10/18 06:31:40;;;;;;;;;12.25;11.00;;;;;12.48;72.70;99403.31;5098512;27;45357;-82
2023/10/18 06:34:17;;;;;;;;;13.75;12.00;;;;;12.80;72.22;99440.66;5080313;27;45302;-83
2023/10/18 06:36:43;;;;;;;;;13.50;13.25;;;;;12.84;72.82;99426.09;5080582;27;45353;-84
2023/10/18 06:39:15;;;;;;;;;11.00;10.00;;;;;12.84;72.70;99418.94;5081292;27;45409;-83
2023/10/18 06:41:43;;;;;;;;;10.50;10.50;;;;;12.65;72.80;99384.09;5093575;27;45475;-83
2023/10/18 06:44:11;;;;;;;;;14.25;11.00;;;;;12.83;72.63;99403.91;5083618;27;45264;-83
2023/10/18 06:46:38;;;;;;;;;11.50;10.25;;;;;12.89;72.27;99403.41;5080541;27;45354;-85
2023/10/18 06:49:10;;;;;;;;;12.00;11.00;;;;;12.84;72.70;99400.25;5102545;27;45457;-82
2023/10/18 06:51:40;;;;;;;;;13.00;11.25;;;;;12.86;72.52;99394.78;5081384;27;45449;-85
2023/10/18 06:54:13;;;;;;;;;9.50;9.25;;;;;12.79;72.77;99390.94;5094238;27;45558;-84
2023/10/18 06:56:39;;;;;;;;;11.75;11.75;;;;;12.96;72.43;99404.56;5085996;27;45654;-82
2023/10/18 06:59:07;;;;;;;;;11.00;9.67;;;;;12.80;72.61;99377.47;5084691;27;45565;-82
2023/10/18 07:01:41;;;;;;;;;14.25;12.75;;;;;12.71;72.59;99367.56;5094406;27;47137;-82
2023/10/18 07:04:18;;;;;;;;;13.25;11.50;;;;;12.92;72.88;99396.94;5078988;27;45445;-84
2023/10/18 07:06:44;;;;;;;;;13.33;12.00;;;;;12.93;72.54;99393.28;5084249;27;45380;-83
2023/10/18 07:09:31;;;;;;;;;11.00;10.00;;;;;12.80;72.95;99347.28;5091671;27;45534;-80
2023/10/18 07:11:57;;;;;;;;;11.00;11.00;;;;;12.98;72.47;99351.88;5081943;27;46102;-86
2023/10/18 07:14:25;;;;;;;;;10.67;8.67;;;;;12.98;72.76;99351.88;5105301;27;45564;-82
2023/10/18 07:16:54;;;;;;;;;13.00;13.00;;;;;13.03;72.63;99340.84;5103079;27;45694;-81
2023/10/18 07:19:27;;;;;;;;;10.00;10.00;;;;;12.70;72.54;99265.38;5096702;27;45336;-82
2023/10/18 07:21:54;;;;;;;;;11.67;11.67;;;;;13.02;72.41;99304.44;5114606;27;47187;-84
2023/10/18 07:24:32;;;;;;;;;11.00;11.00;;;;;13.09;71.40;99316.28;5093742;27;45400;-83
2023/10/18 07:26:59;;;;;;;;;16.33;11.67;;;;;12.99;71.99;99302.88;5086421;27;45402;-84
2023/10/18 07:29:27;;;;;;;;;13.00;10.00;;;;;13.17;71.49;99331.63;5091852;27;45469;-84
2023/10/18 07:31:59;;;;;;;;;12.67;12.67;;;;;13.33;71.58;99353.38;5093675;27;45592;-81
2023/10/18 07:34:32;;;;;;;;;11.33;11.33;;;;;13.46;71.41;99356.66;5087005;27;45507;-86
2023/10/18 07:37:00;;;;;;;;;12.00;10.67;;;;;13.23;70.91;99309.75;5089981;27;45503;-82
2023/10/18 07:39:25;;;;;;;;;13.67;11.67;;;;;13.57;70.92;99356.56;5084864;27;45575;-85
2023/10/18 07:41:52;;;;;;;;;13.00;11.33;;;;;13.68;71.03;99369.00;5081617;27;45822;-86
2023/10/18 07:44:18;;;;;;;;;16.00;11.33;;;;;13.70;70.84;99356.34;5082023;27;45250;-83
2023/10/18 07:46:44;;;;;;;;;19.00;13.67;;;;;13.71;70.61;99330.47;5095484;27;45444;-82
2023/10/18 07:49:16;;;;;;;;;14.00;12.67;;;;;14.08;70.06;99360.94;5082433;27;45546;-81
2023/10/18 07:51:48;;;;;;;;;14.00;11.67;;;;;14.17;69.68;99346.72;5080606;27;46228;-85
2023/10/18 07:54:14;;;;;;;;;15.00;13.00;;;;;14.35;69.36;99346.88;5082486;27;45435;-81
2023/10/18 07:56:49;;;;;;;;;11.00;9.67;;;;;14.45;68.34;99346.91;5091507;27;45587;-81
2023/10/18 07:59:28;;;;;;;;;11.67;11.67;;;;;14.52;68.29;99326.63;5105260;27;45352;-83
2023/10/18 08:04:34;;;;;;;;;12.67;12.67;;;;;14.53;67.99;99312.28;5088690;27;45501;-83
2023/10/18 08:07:00;;;;;;;;;10.33;8.67;;;;;14.31;67.71;99248.34;5090461;27;45466;-82
2023/10/18 08:09:29;;;;;;;;;13.00;10.67;;;;;14.60;67.86;99270.59;5092417;27;44927;-87
2023/10/18 08:12:05;;;;;;;;;12.00;9.33;;;;;14.95;67.09;99285.97;5089103;27;46520;-84
2023/10/18 08:14:34;;;;;;;;;11.33;11.33;;;;;15.06;67.00;99271.59;5083215;27;45160;-80
2023/10/18 08:17:09;;;;;;;;;12.00;10.33;;;;;15.04;66.80;99269.06;5088187;27;45448;-86
2023/10/18 08:19:43;;;;;;;;;12.00;11.33;;;;;15.11;66.49;99290.75;5085034;27;45410;-85
2023/10/18 08:24:41;;;;;;;;;13.00;11.00;;;;;15.45;65.58;99276.78;5080452;27;45373;-82
2023/10/18 08:27:10;;;;;;;;;9.67;9.67;;;;;15.45;65.31;99255.34;5092618;27;45232;-85
2023/10/18 08:29:39;;;;;;;;;10.00;9.33;;;;;15.60;64.49;99249.34;5087387;27;45502;-82
2023/10/18 08:32:29;;;;;;;;;8.00;7.67;;;;;15.80;64.35;99254.59;5086142;27;45469;-82
2023/10/18 08:34:53;;;;;;;;;13.00;13.00;;;;;15.89;64.46;99251.84;5079766;27;45428;-80
2023/10/18 08:37:18;;;;;;;;;15.00;12.67;;;;;15.91;64.50;99274.00;5085760;27;56846;-83
2023/10/18 08:39:55;;;;;;;;;7.67;7.67;;;;;15.78;64.75;99257.44;5093051;27;46908;-82
2023/10/18 08:42:30;;;;;;;;;13.00;13.00;;;;;15.79;64.88;99271.69;5089146;27;45576;-82
2023/10/18 08:45:04;;;;;;;;;11.33;10.00;;;;;15.71;65.07;99277.78;5103627;27;45334;-84
2023/10/18 08:47:35;;;;;;;;;9.67;9.00;;;;;15.56;65.61;99247.09;5101745;27;45383;-82
2023/10/18 08:50:00;;;;;;;;;7.00;7.00;;;;;15.60;65.78;99257.38;5100647;27;44841;-83
2023/10/18 08:52:35;;;;;;;;;9.33;9.33;;;;;15.65;66.06;99262.31;5100426;27;45419;-80
2023/10/18 08:55:19;;;;;;;;;6.67;6.67;;;;;15.52;65.36;99219.75;5093781;27;45373;-79
2023/10/18 08:57:46;;;;;;;;;5.67;5.33;;;;;15.86;65.76;99249.47;5089349;27;45382;-81
2023/10/18 09:03:01;;;;;;;;;11.33;10.33;;;;;16.14;65.11;99246.69;5071496;27;45981;-85
2023/10/18 09:05:26;;;;;;;;;12.33;9.00;;;;;16.11;64.74;99230.91;5086463;27;46893;-83
2023/10/18 09:07:59;;;;;;;;;8.00;8.00;;;;;16.24;64.77;99242.09;5079045;27;45466;-81
2023/10/18 09:16:01;;;;;;;;;11.67;8.00;;;;;16.52;64.14;99234.75;5099049;27;46112;-81
2023/10/18 09:18:30;;;;;;;;;15.67;12.67;;;;;16.31;63.76;99173.41;5083137;27;45322;-82
2023/10/18 09:21:02;;;;;;;;;11.33;8.00;;;;;16.67;63.66;99210.91;5101862;27;45564;-81
2023/10/18 09:23:31;;;;;;;;;10.00;10.00;;;;;16.70;63.55;99213.28;5098648;27;45531;-85
2023/10/18 09:26:18;;;;;;;;;13.33;11.67;;;;;16.84;63.67;99215.38;5099399;27;45389;-85
2023/10/18 09:28:46;;;;;;;;;11.33;9.00;;;;;17.01;63.39;99229.75;5101099;27;45384;-84
2023/10/18 09:31:18;;;;;;;;;12.33;7.67;;;;;16.99;63.30;99213.78;5082756;27;45188;-87
2023/10/18 09:33:48;;;;;;;;;11.00;9.33;;;;;17.00;63.28;99215.47;5095345;27;45334;-86
2023/10/18 09:36:27;;;;;;;;;12.33;10.00;;;;;16.55;63.47;99150.44;5096408;27;45767;-82
2023/10/18 09:38:54;;;;;;;;;13.33;12.33;;;;;17.23;63.50;99215.75;5093327;27;45403;-86
2023/10/18 09:41:20;;;;;;;;;12.67;10.00;;;;;17.34;62.79;99220.84;5065571;28;45346;-88
2023/10/18 09:43:47;;;;;;;;;10.67;10.67;;;;;17.38;63.03;99226.72;5077310;28;46618;-81
2023/10/18 09:46:13;;;;;;;;;8.00;8.00;;;;;17.47;63.04;99215.00;5079266;28;45438;-82
2023/10/18 09:48:46;;;;;;;;;8.00;8.00;;;;;17.51;62.66;99210.13;5066193;28;45428;-82
2023/10/18 09:51:20;;;;;;;;;11.33;10.00;;;;;17.52;62.86;99212.66;5075282;28;45581;-85
2023/10/18 09:53:51;;;;;;;;;10.67;9.33;;;;;17.46;63.11;99204.41;5064321;28;45356;-81
2023/10/18 09:56:24;;;;;;;;;11.67;10.67;;;;;17.17;63.37;99156.44;5070235;28;45527;-82
2023/10/18 09:58:53;;;;;;;;;11.33;10.00;;;;;17.21;63.40;99176.63;5066743;28;45486;-84
2023/10/18 10:01:29;;;;;;;;;11.33;9.00;;;;;17.23;63.76;99186.19;5078444;28;45598;-85
2023/10/18 10:04:01;;;;;;;;;8.33;8.33;;;;;17.18;64.05;99184.97;5067726;28;45482;-82
2023/10/18 10:06:28;;;;;;;;;12.67;10.00;;;;;17.03;64.25;99158.72;5056894;28;45575;-85
2023/10/18 10:09:12;;;;;;;;;9.33;9.33;;;;;17.03;64.18;99164.09;5064613;28;45379;-84
2023/10/18 10:11:45;;;;;;;;;9.67;9.00;;;;;17.06;64.47;99169.19;5055722;28;45710;-83
2023/10/18 10:14:18;;;;;;;;;9.33;9.33;;;;;16.95;64.73;99147.13;5072821;28;46574;-82
2023/10/18 10:16:52;;;;;;;;;8.67;8.33;;;;;16.95;65.12;99153.34;5072568;27;45554;-81
2023/10/18 10:19:23;;;;;;;;;10.33;8.67;;;;;16.97;65.04;99162.09;5101741;27;45432;-86
2023/10/18 10:21:49;;;;;;;;;8.00;7.00;;;;;17.01;65.66;99170.66;5092160;27;45166;-83
2023/10/18 10:24:30;;;;;;;;;9.67;7.33;;;;;16.93;65.34;99146.47;5110043;27;45266;-81
2023/10/18 10:30:03;;;;;;;;;14.00;10.67;;;;;17.15;65.31;99139.63;5088957;27;45366;-86
2023/10/18 10:32:30;;;;;;;;;9.67;9.00;;;;;17.34;65.15;99144.75;5080957;27;45557;-86
2023/10/18 10:35:16;;;;;;;;;9.33;9.33;;;;;17.49;64.97;99143.09;5082534;27;45313;-81
2023/10/18 10:37:49;;;;;;;;;12.33;12.33;;;;;17.55;64.66;99112.84;5078092;27;45586;-82
2023/10/18 10:43:09;;;;;;;;;10.67;10.67;;;;;17.88;64.20;99137.13;5097399;27;45443;-85
2023/10/18 10:51:19;;;;;;;;;11.00;8.00;;;;;17.91;64.13;99104.50;5093848;27;44772;-84
2023/10/18 10:53:54;;;;;;;;;8.00;8.00;;;;;18.01;64.14;99118.63;5077031;27;45468;-82
2023/10/18 10:56:28;;;;;;;;;9.33;9.33;;;;;17.95;64.56;99114.75;5076593;27;45407;-82
2023/10/18 11:01:39;;;;;;;;;8.00;7.33;;;;;17.87;65.07;99113.94;5087638;27;45814;-83
2023/10/18 11:04:11;;;;;;;;;9.67;9.67;;;;;17.74;65.40;99086.69;5095125;27;45446;-82
2023/10/18 11:06:42;;;;;;;;;10.50;9.50;;;;;17.84;65.70;99095.41;5093223;27;47790;-84
2023/10/18 11:09:09;;;;;;;;;9.00;7.33;;;;;17.82;65.71;99094.75;5076614;27;45393;-83
2023/10/18 11:11:36;;;;;;;;;6.67;5.67;;;;;17.66;66.06;99066.81;5080319;27;45447;-80
2023/10/18 11:14:01;;;;;;;;;6.67;6.67;;;;;17.71;66.16;99061.00;5086408;27;45434;-81
2023/10/18 11:16:27;;;;;;;;;9.33;9.33;;;;;17.78;66.47;99093.41;5083626;27;45747;-81
2023/10/18 11:18:53;;;;;;;;;9.00;9.00;;;;;17.69;66.37;99066.50;5096146;27;45678;-84
2023/10/18 11:21:30;;;;;;;;;9.67;8.67;;;;;17.75;66.89;99081.16;5116091;27;45491;-83
2023/10/18 11:24:04;;;;;;;;;11.00;10.00;;;;;17.63;67.32;99053.72;5095776;27;45538;-80
2023/10/18 11:26:38;;;;;;;;;9.00;9.00;;;;;17.67;67.56;99057.75;5104369;27;45637;-80
2023/10/18 11:29:05;;;;;;;;;13.00;11.67;;;;;17.75;67.50;99061.50;5097201;27;45544;-86
2023/10/18 11:31:31;;;;;;;;;9.00;9.00;;;;;17.77;68.22;99051.41;5086358;27;45465;-80
2023/10/18 11:34:07;;;;;;;;;11.33;10.00;;;;;17.77;68.61;99048.72;5082970;27;45449;-80
2023/10/18 11:36:40;;;;;;;;;10.67;10.67;;;;;17.75;69.29;99046.19;5092386;27;45315;-84
2023/10/18 11:39:18;;;;;;;;;14.00;14.00;;;;;17.77;69.07;99040.66;5096334;27;45577;-80
2023/10/18 11:41:49;;;;;;;;;10.00;9.67;;;;;17.76;69.48;99031.75;5092417;27;45286;-80
2023/10/18 11:44:34;;;;;;;;;11.33;7.33;;;;;17.75;70.33;99023.84;5086278;28;45428;-86
2023/10/18 11:47:19;;;;;;;;;9.67;9.67;;;;;17.79;70.09;99011.72;5068659;28;45543;-81
2023/10/18 11:49:48;;;;;;;;;12.67;10.67;;;;;17.78;70.53;98997.44;5067464;28;45300;-80
2023/10/18 11:52:25;;;;;;;;;9.00;7.00;;;;;17.85;70.79;99009.22;5072680;28;45295;-82
2023/10/18 11:54:52;;;;;;;;;19.33;15.33;;;;;17.87;71.71;99007.19;5082826;28;45386;-80
2023/10/18 11:57:30;;;;;;;;;11.00;11.00;;;;;17.83;71.38;98991.53;5069872;28;46121;-82
2023/10/18 12:00:20;;;;;;;;;15.67;11.67;;;;;17.75;71.21;98983.50;5064380;28;46146;-82
2023/10/18 12:02:44;;;;;;;;;9.67;9.67;;;;;17.65;72.17;98965.69;5068147;28;45405;-81
2023/10/18 12:05:10;;;;;;;;;11.33;11.33;;;;;17.66;72.55;98961.97;5076203;28;45327;-81
2023/10/18 12:07:44;;;;;;;;;9.67;9.00;;;;;17.50;72.73;98945.88;5096592;28;45533;-80
2023/10/18 12:10:17;;;;;;;;;13.67;11.00;;;;;17.66;73.68;98971.88;5077191;28;45406;-85
2023/10/18 12:12:49;;;;;;;;;11.00;11.00;;;;;17.60;73.79;98964.53;5056703;28;45443;-82
2023/10/18 12:15:15;;;;;;;;;11.33;11.00;;;;;17.59;73.66;98965.53;5058566;28;44906;-81
2023/10/18 12:17:41;;;;;;;;;9.00;9.00;;;;;17.35;74.69;98928.78;5095748;28;45216;-80
2023/10/18 12:20:08;;;;;;;;;11.00;11.00;;;;;17.17;75.28;98895.84;5096061;28;44787;-84
2023/10/18 12:22:36;;;;;;;;;11.00;10.00;;;;;17.58;74.52;98953.94;5106786;27;44767;-81
2023/10/18 12:25:03;;;;;;;;;7.33;7.33;;;;;17.37;75.05;98907.94;5111831;27;45210;-80
2023/10/18 12:27:36;;;;;;;;;11.00;9.33;;;;;17.67;75.58;98935.94;5090480;27;45452;-81
2023/10/18 12:30:28;;;;;;;;;9.00;9.00;;;;;17.74;75.73;98936.13;5102462;27;45258;-80